Time;durP1;ratioP1;P1;durP2;ratioP2;P2;SDS_P1;SDS_P2;PMS_P1;PMS_P2;Temp;Humidity;BMP_temperature;BMP_pressure;BME280_temperature;BME280_humidity;BME280_pressure;Samples;Min_cycle;Max_cycle;Signal;HPM_P1;HPM_P2
2023/10/07 00:02:16;;;;;;;2.78;2.40;;;;;;;;;;5079894;28;20600;-65
2023/10/07 00:04:44;;;;;;;3.63;2.30;;;;;;;;;;5080473;28;20203;-65
2023/10/07 00:07:12;;;;;;;3.15;2.50;;;;;;;;;;5080054;28;20471;-65
2023/10/07 00:09:41;;;;;;;3.13;2.47;;;;;;;;;;5080338;28;20215;-65
2023/10/07 00:12:14;;;;;;;2.78;2.40;;;;;;;;;;5080480;28;20204;-65
2023/10/07 00:14:42;;;;;;;2.72;2.25;;;;;;;;;;5080279;28;20204;-65
2023/10/07 00:17:17;;;;;;;2.78;2.30;;;;;;;;;;5080313;28;20658;-65
2023/10/07 00:19:45;;;;;;;2.95;2.33;;;;;;;;;;5079753;28;20236;-65
2023/10/07 00:22:13;;;;;;;3.25;2.65;;;;;;;;;;5079889;28;20214;-65
2023/10/07 00:24:43;;;;;;;3.10;2.35;;;;;;;;;;5080182;28;20204;-65
2023/10/07 00:27:26;;;;;;;3.42;2.47;;;;;;;;;;5079707;28;20239;-65
2023/10/07 00:29:55;;;;;;;2.60;2.38;;;;;;;;;;5080412;28;20211;-65
2023/10/07 00:32:27;;;;;;;3.22;2.60;;;;;;;;;;5080354;28;20302;-65
2023/10/07 00:34:55;;;;;;;2.67;2.28;;;;;;;;;;5080391;28;20266;-65
2023/10/07 00:37:25;;;;;;;3.10;2.42;;;;;;;;;;5080069;28;20215;-65
2023/10/07 00:39:53;;;;;;;2.85;2.15;;;;;;;;;;5078831;28;20286;-65
2023/10/07 00:42:22;;;;;;;3.85;2.55;;;;;;;;;;5079630;28;20572;-65
2023/10/07 00:44:53;;;;;;;2.72;2.20;;;;;;;;;;5079453;28;20218;-65
2023/10/07 00:47:21;;;;;;;2.67;2.20;;;;;;;;;;5079578;28;20358;-65
2023/10/07 00:49:55;;;;;;;3.33;2.50;;;;;;;;;;5079457;28;20201;-65
2023/10/07 00:52:28;;;;;;;2.47;2.17;;;;;;;;;;5079683;28;20286;-65
2023/10/07 00:55:08;;;;;;;3.05;2.35;;;;;;;;;;5079405;28;20204;-65
2023/10/07 00:57:37;;;;;;;3.15;2.60;;;;;;;;;;5079809;28;20204;-65
2023/10/07 01:00:34;;;;;;;3.08;2.53;;;;;;;;;;5079698;28;20227;-65
2023/10/07 01:03:13;;;;;;;2.47;2.00;;;;;;;;;;5078999;28;20556;-65
2023/10/07 01:05:53;;;;;;;2.88;2.47;;;;;;;;;;5079086;28;20691;-65
2023/10/07 01:08:26;;;;;;;3.45;2.70;;;;;;;;;;5079636;28;20307;-65
2023/10/07 01:11:06;;;;;;;2.78;2.13;;;;;;;;;;5079127;28;20237;-65
2023/10/07 01:13:33;;;;;;;4.00;2.22;;;;;;;;;;5079007;28;20204;-65
2023/10/07 01:16:06;;;;;;;2.88;2.38;;;;;;;;;;5078997;28;20528;-65
2023/10/07 01:18:38;;;;;;;3.63;2.55;;;;;;;;;;5079177;28;20303;-65
2023/10/07 01:21:08;;;;;;;2.80;2.50;;;;;;;;;;5079097;28;20216;-65
2023/10/07 01:23:39;;;;;;;2.97;2.40;;;;;;;;;;5078960;28;20204;-65
2023/10/07 01:26:15;;;;;;;3.40;2.22;;;;;;;;;;5079032;28;20270;-65
2023/10/07 01:28:43;;;;;;;3.22;2.47;;;;;;;;;;5078844;28;20206;-65
2023/10/07 01:31:12;;;;;;;2.70;2.25;;;;;;;;;;5078816;28;20212;-65
2023/10/07 01:33:45;;;;;;;3.10;2.28;;;;;;;;;;5079147;28;20209;-65
2023/10/07 01:36:16;;;;;;;3.47;2.33;;;;;;;;;;5079022;28;20242;-65
2023/10/07 01:38:51;;;;;;;2.53;2.33;;;;;;;;;;5078618;28;20227;-65
2023/10/07 01:41:19;;;;;;;2.70;2.22;;;;;;;;;;5078445;28;20203;-65
2023/10/07 01:43:56;;;;;;;2.92;2.22;;;;;;;;;;5078908;28;20243;-65
2023/10/07 01:46:27;;;;;;;2.92;2.40;;;;;;;;;;5078511;28;20203;-65
2023/10/07 01:48:57;;;;;;;2.50;2.30;;;;;;;;;;5078872;28;20266;-65
2023/10/07 01:51:26;;;;;;;2.83;2.30;;;;;;;;;;5077369;28;20249;-65
2023/10/07 01:54:00;;;;;;;2.45;2.20;;;;;;;;;;5078241;28;20262;-65
2023/10/07 01:56:29;;;;;;;2.60;2.10;;;;;;;;;;5077944;28;20282;-65
2023/10/07 01:58:57;;;;;;;2.75;2.13;;;;;;;;;;5077991;28;20224;-65
2023/10/07 02:01:28;;;;;;;2.92;2.22;;;;;;;;;;5077880;28;20493;-65
2023/10/07 02:03:57;;;;;;;2.60;2.15;;;;;;;;;;5078518;28;20304;-65
2023/10/07 02:06:26;;;;;;;2.35;2.08;;;;;;;;;;5078030;28;20230;-65
2023/10/07 02:08:53;;;;;;;2.85;2.35;;;;;;;;;;5078160;28;20200;-65
2023/10/07 02:11:30;;;;;;;2.40;2.10;;;;;;;;;;5077807;28;20215;-65
2023/10/07 02:13:58;;;;;;;2.92;2.13;;;;;;;;;;5077891;28;20204;-65
2023/10/07 02:16:27;;;;;;;3.45;2.30;;;;;;;;;;5077413;28;20208;-65
2023/10/07 02:18:54;;;;;;;3.05;2.55;;;;;;;;;;5078023;28;20657;-65
2023/10/07 02:21:23;;;;;;;3.05;2.33;;;;;;;;;;5077643;28;20212;-65
2023/10/07 02:23:50;;;;;;;2.65;2.20;;;;;;;;;;5077367;28;20314;-65
2023/10/07 02:26:19;;;;;;;2.92;2.53;;;;;;;;;;5077602;28;20208;-65
2023/10/07 02:28:50;;;;;;;2.60;2.40;;;;;;;;;;5077798;28;20493;-65
2023/10/07 02:31:19;;;;;;;2.92;2.35;;;;;;;;;;5077667;28;20204;-65
2023/10/07 02:33:51;;;;;;;2.83;2.35;;;;;;;;;;5077561;28;20236;-65
2023/10/07 02:36:28;;;;;;;3.05;2.60;;;;;;;;;;5077552;28;20255;-65
2023/10/07 02:38:56;;;;;;;2.20;2.00;;;;;;;;;;5077329;28;20227;-65
2023/10/07 02:41:30;;;;;;;3.00;2.50;;;;;;;;;;5077613;28;20239;-65
2023/10/07 02:44:05;;;;;;;2.78;2.30;;;;;;;;;;5077741;28;20258;-65
2023/10/07 02:46:33;;;;;;;3.58;2.53;;;;;;;;;;5077841;28;20302;-65
2023/10/07 02:49:10;;;;;;;2.92;2.58;;;;;;;;;;5077170;28;20226;-65
2023/10/07 02:51:46;;;;;;;3.10;2.53;;;;;;;;;;5077211;28;20215;-65
2023/10/07 02:54:18;;;;;;;2.35;2.13;;;;;;;;;;5077421;28;20210;-65
2023/10/07 02:56:54;;;;;;;2.83;2.50;;;;;;;;;;5077612;28;20236;-65
2023/10/07 02:59:33;;;;;;;2.97;2.28;;;;;;;;;;5077123;28;20242;-65
2023/10/07 03:05:12;;;;;;;3.97;2.65;;;;;;;;;;4995712;28;20464;-65
2023/10/07 03:07:42;;;;;;;2.80;2.22;;;;;;;;;;5066619;28;20234;-65
2023/10/07 03:10:18;;;;;;;3.25;2.80;;;;;;;;;;5077107;28;20200;-65
2023/10/07 03:12:48;;;;;;;2.60;2.15;;;;;;;;;;5076875;28;20580;-65
2023/10/07 03:15:39;;;;;;;2.65;2.25;;;;;;;;;;5077175;28;20251;-65
2023/10/07 03:18:20;;;;;;;2.85;2.13;;;;;;;;;;5077691;28;20208;-65
2023/10/07 03:20:59;;;;;;;2.33;2.10;;;;;;;;;;5077084;28;20228;-65
2023/10/07 03:23:32;;;;;;;2.70;2.42;;;;;;;;;;5076541;28;20238;-65
2023/10/07 03:26:13;;;;;;;2.72;2.40;;;;;;;;;;5076420;28;20222;-65
2023/10/07 03:28:51;;;;;;;2.95;2.65;;;;;;;;;;5077063;28;20239;-65
2023/10/07 03:31:21;;;;;;;2.60;2.40;;;;;;;;;;5076541;28;20204;-65
2023/10/07 03:33:58;;;;;;;2.83;2.30;;;;;;;;;;5077244;28;21339;-65
2023/10/07 03:36:40;;;;;;;2.63;2.30;;;;;;;;;;5076821;28;20306;-65
2023/10/07 03:39:23;;;;;;;2.78;2.25;;;;;;;;;;5076894;28;20249;-65
2023/10/07 03:41:55;;;;;;;2.78;2.30;;;;;;;;;;5077009;28;20211;-65
2023/10/07 03:44:25;;;;;;;2.35;2.15;;;;;;;;;;5076823;28;20204;-65
2023/10/07 03:46:55;;;;;;;3.00;2.50;;;;;;;;;;5076761;28;20211;-65
2023/10/07 03:49:23;;;;;;;2.50;2.17;;;;;;;;;;5076766;28;20212;-65
2023/10/07 03:52:03;;;;;;;3.80;2.63;;;;;;;;;;5076970;28;20205;-65
2023/10/07 03:54:31;;;;;;;2.88;2.10;;;;;;;;;;5076203;28;20269;-65
2023/10/07 03:57:00;;;;;;;2.53;2.33;;;;;;;;;;5076589;28;20204;-65
2023/10/07 03:59:30;;;;;;;3.13;2.55;;;;;;;;;;5076532;28;20232;-65
2023/10/07 04:02:00;;;;;;;2.33;2.13;;;;;;;;;;5076542;28;20204;-65
2023/10/07 04:04:28;;;;;;;2.95;2.40;;;;;;;;;;5076922;28;20205;-65
2023/10/07 04:07:00;;;;;;;2.60;2.28;;;;;;;;;;5076714;28;20302;-65
2023/10/07 04:09:33;;;;;;;2.70;2.40;;;;;;;;;;5076513;28;20478;-65
2023/10/07 04:12:00;;;;;;;3.47;2.38;;;;;;;;;;5076519;28;20580;-65
2023/10/07 04:14:28;;;;;;;3.08;2.50;;;;;;;;;;5077786;28;20204;-65
2023/10/07 04:16:59;;;;;;;3.70;2.58;;;;;;;;;;5080117;28;20208;-65
2023/10/07 04:19:38;;;;;;;2.95;2.50;;;;;;;;;;5079585;28;20318;-65
2023/10/07 04:22:08;;;;;;;2.90;2.58;;;;;;;;;;5079731;28;20232;-65
2023/10/07 04:24:38;;;;;;;2.78;2.20;;;;;;;;;;5079918;28;20204;-65
2023/10/07 04:27:07;;;;;;;3.00;2.45;;;;;;;;;;5079896;28;20205;-65
2023/10/07 04:29:34;;;;;;;3.00;2.38;;;;;;;;;;5079781;28;20458;-65
2023/10/07 04:32:11;;;;;;;3.03;2.63;;;;;;;;;;5079349;28;20240;-65
2023/10/07 04:35:00;;;;;;;3.28;2.97;;;;;;;;;;5079781;28;20243;-65
2023/10/07 04:37:38;;;;;;;3.53;2.80;;;;;;;;;;5080015;28;20204;-65
2023/10/07 04:43:25;;;;;;;3.03;2.63;;;;;;;;;;5079362;28;20334;-65
2023/10/07 04:45:49;;;;;;;3.92;2.78;;;;;;;;;;5079417;28;20290;-65
2023/10/07 04:48:31;;;;;;;3.42;2.65;;;;;;;;;;5079924;28;20207;-65
2023/10/07 04:51:07;;;;;;;3.38;2.75;;;;;;;;;;5079649;28;20200;-65
2023/10/07 04:53:39;;;;;;;3.25;2.50;;;;;;;;;;5079802;28;20299;-65
2023/10/07 04:56:10;;;;;;;3.08;2.50;;;;;;;;;;5079456;28;20247;-65
2023/10/07 04:58:39;;;;;;;2.88;2.42;;;;;;;;;;5079712;28;20216;-65
2023/10/07 05:01:22;;;;;;;2.67;2.40;;;;;;;;;;5079566;28;20228;-65
2023/10/07 05:03:55;;;;;;;2.88;2.40;;;;;;;;;;5079093;28;20262;-65
2023/10/07 05:06:23;;;;;;;3.35;2.25;;;;;;;;;;5079277;28;20200;-65
2023/10/07 05:08:50;;;;;;;3.45;2.72;;;;;;;;;;5079596;28;20222;-65
2023/10/07 05:11:18;;;;;;;3.05;2.53;;;;;;;;;;5079614;28;20257;-65
2023/10/07 05:13:45;;;;;;;2.90;2.60;;;;;;;;;;5079839;28;20212;-65
2023/10/07 05:16:12;;;;;;;3.35;2.75;;;;;;;;;;5079660;28;20258;-65
2023/10/07 05:18:40;;;;;;;3.03;2.38;;;;;;;;;;5079085;28;20205;-65
2023/10/07 05:21:08;;;;;;;2.78;2.50;;;;;;;;;;5078738;28;20235;-65
2023/10/07 05:23:37;;;;;;;2.92;2.58;;;;;;;;;;5078796;28;20223;-65
2023/10/07 05:26:08;;;;;;;2.75;2.55;;;;;;;;;;5079008;28;20641;-65
2023/10/07 05:28:36;;;;;;;3.38;2.70;;;;;;;;;;5079134;28;20400;-65
2023/10/07 05:31:04;;;;;;;3.35;2.75;;;;;;;;;;5078503;28;20283;-65
2023/10/07 05:33:35;;;;;;;3.50;2.58;;;;;;;;;;5079033;28;20612;-65
2023/10/07 05:36:08;;;;;;;3.83;2.97;;;;;;;;;;5078894;28;20283;-65
2023/10/07 05:38:37;;;;;;;2.90;2.40;;;;;;;;;;5078300;28;20212;-65
2023/10/07 05:41:06;;;;;;;3.30;2.38;;;;;;;;;;5078311;28;20231;-65
2023/10/07 05:43:34;;;;;;;2.97;2.40;;;;;;;;;;5078708;28;20532;-65
2023/10/07 05:46:01;;;;;;;3.00;2.50;;;;;;;;;;5078988;28;20211;-65
2023/10/07 05:48:28;;;;;;;3.05;2.45;;;;;;;;;;5077739;28;20211;-65
2023/10/07 05:50:57;;;;;;;3.00;2.47;;;;;;;;;;5078350;28;20265;-65
2023/10/07 05:53:24;;;;;;;3.10;2.70;;;;;;;;;;5078041;28;20307;-65
2023/10/07 05:55:53;;;;;;;3.88;2.67;;;;;;;;;;5078521;28;20204;-65
2023/10/07 05:58:22;;;;;;;3.78;2.60;;;;;;;;;;5078264;28;20299;-65
2023/10/07 06:00:49;;;;;;;2.67;2.38;;;;;;;;;;5078257;28;20563;-65
2023/10/07 06:03:17;;;;;;;2.80;2.50;;;;;;;;;;5077646;28;20212;-65
2023/10/07 06:05:44;;;;;;;3.38;2.80;;;;;;;;;;5078025;28;20231;-65
2023/10/07 06:08:11;;;;;;;3.10;2.78;;;;;;;;;;5077850;28;20290;-65
2023/10/07 06:10:39;;;;;;;4.45;2.88;;;;;;;;;;5076919;28;20219;-65
2023/10/07 06:13:09;;;;;;;3.05;2.70;;;;;;;;;;5077622;28;20208;-65
2023/10/07 06:15:37;;;;;;;3.35;2.92;;;;;;;;;;5077921;28;20205;-65
2023/10/07 06:18:05;;;;;;;3.60;2.80;;;;;;;;;;5076999;28;20200;-65
2023/10/07 06:20:37;;;;;;;3.55;2.78;;;;;;;;;;5077124;28;20230;-65
2023/10/07 06:23:14;;;;;;;4.13;3.17;;;;;;;;;;5077168;28;20243;-65
2023/10/07 06:25:48;;;;;;;4.75;3.10;;;;;;;;;;5077032;28;20204;-65
2023/10/07 06:28:29;;;;;;;3.97;3.13;;;;;;;;;;5076854;28;20211;-65
2023/10/07 06:31:01;;;;;;;4.18;3.03;;;;;;;;;;5077564;28;20206;-65
2023/10/07 06:33:31;;;;;;;3.95;2.95;;;;;;;;;;5076576;28;20236;-65
2023/10/07 06:35:59;;;;;;;3.65;3.15;;;;;;;;;;5076562;28;20204;-65
2023/10/07 06:38:27;;;;;;;3.63;2.78;;;;;;;;;;5076581;28;20204;-65
2023/10/07 06:40:56;;;;;;;3.13;2.50;;;;;;;;;;5076834;28;20235;-65
2023/10/07 06:43:25;;;;;;;3.45;2.78;;;;;;;;;;5077303;28;20303;-65
2023/10/07 06:45:55;;;;;;;3.90;2.95;;;;;;;;;;5076997;28;20205;-65
2023/10/07 06:48:27;;;;;;;3.78;2.63;;;;;;;;;;5076225;28;20208;-65
2023/10/07 06:50:54;;;;;;;3.33;2.88;;;;;;;;;;5076455;28;20211;-65
2023/10/07 06:53:22;;;;;;;3.33;2.80;;;;;;;;;;5076283;28;20203;-65
2023/10/07 06:55:51;;;;;;;3.35;3.05;;;;;;;;;;5076467;28;20287;-65
2023/10/07 06:58:22;;;;;;;2.90;2.63;;;;;;;;;;5076554;28;20204;-65
2023/10/07 07:00:56;;;;;;;4.05;3.08;;;;;;;;;;5076574;28;20242;-65
2023/10/07 07:03:25;;;;;;;3.75;2.70;;;;;;;;;;5075983;28;20204;-65
2023/10/07 07:05:54;;;;;;;3.40;2.88;;;;;;;;;;5076299;28;20208;-65
2023/10/07 07:08:24;;;;;;;4.63;2.85;;;;;;;;;;5076230;28;20204;-65
2023/10/07 07:10:50;;;;;;;3.67;2.83;;;;;;;;;;5076791;28;20207;-65
2023/10/07 07:13:23;;;;;;;3.60;2.63;;;;;;;;;;5076224;28;20295;-65
2023/10/07 07:15:57;;;;;;;5.03;2.60;;;;;;;;;;5076598;28;20204;-65
2023/10/07 07:18:26;;;;;;;3.20;2.40;;;;;;;;;;5075899;28;20227;-65
2023/10/07 07:21:13;;;;;;;3.83;2.90;;;;;;;;;;5075717;28;20289;-65
2023/10/07 07:23:49;;;;;;;4.10;2.92;;;;;;;;;;5076553;28;20218;-65
2023/10/07 07:26:20;;;;;;;4.00;3.00;;;;;;;;;;5075539;28;20212;-65
2023/10/07 07:28:48;;;;;;;4.28;2.63;;;;;;;;;;5075825;28;20200;-65
2023/10/07 07:31:25;;;;;;;4.38;3.33;;;;;;;;;;5075640;28;20196;-65
2023/10/07 07:34:06;;;;;;;3.60;2.83;;;;;;;;;;5075641;28;20239;-65
2023/10/07 07:36:42;;;;;;;4.32;3.10;;;;;;;;;;5076184;28;20235;-65
2023/10/07 07:39:18;;;;;;;4.65;2.88;;;;;;;;;;5075759;28;20204;-65
2023/10/07 07:41:55;;;;;;;3.92;2.92;;;;;;;;;;5075917;28;20259;-65
2023/10/07 07:44:37;;;;;;;3.58;2.97;;;;;;;;;;5076289;28;20204;-65
2023/10/07 07:47:05;;;;;;;3.90;3.22;;;;;;;;;;5076417;28;20212;-65
2023/10/07 07:49:35;;;;;;;5.38;3.38;;;;;;;;;;5077464;28;20249;-65
2023/10/07 07:52:08;;;;;;;4.25;3.35;;;;;;;;;;5079793;28;20291;-65
2023/10/07 07:54:35;;;;;;;4.53;3.22;;;;;;;;;;5079853;28;20204;-65
2023/10/07 07:57:04;;;;;;;4.10;3.30;;;;;;;;;;5079594;28;20278;-65
2023/10/07 07:59:32;;;;;;;4.65;3.40;;;;;;;;;;5079372;28;20214;-65
2023/10/07 08:02:12;;;;;;;4.03;3.10;;;;;;;;;;5079472;28;20612;-65
2023/10/07 08:04:48;;;;;;;4.22;2.90;;;;;;;;;;5078814;28;20207;-65
2023/10/07 08:07:27;;;;;;;4.53;3.25;;;;;;;;;;5079520;28;20204;-65
2023/10/07 08:09:57;;;;;;;3.97;3.15;;;;;;;;;;5078804;28;20306;-65
2023/10/07 08:12:30;;;;;;;4.35;3.30;;;;;;;;;;5078647;28;20306;-64
2023/10/07 08:14:59;;;;;;;4.35;3.03;;;;;;;;;;5078448;28;20212;-64
2023/10/07 08:17:27;;;;;;;5.10;3.42;;;;;;;;;;5078186;28;20206;-64
2023/10/07 08:19:57;;;;;;;3.63;3.15;;;;;;;;;;5079128;28;20560;-64
2023/10/07 08:22:27;;;;;;;4.85;3.20;;;;;;;;;;5078686;28;20231;-64
2023/10/07 08:25:00;;;;;;;3.60;3.10;;;;;;;;;;5078917;28;20755;-64
2023/10/07 08:27:49;;;;;;;3.53;3.22;;;;;;;;;;5079634;28;20644;-64
2023/10/07 08:30:37;;;;;;;4.45;3.00;;;;;;;;;;5078468;28;20205;-64
2023/10/07 08:33:06;;;;;;;3.83;3.13;;;;;;;;;;5079153;28;20238;-64
2023/10/07 08:35:35;;;;;;;5.28;3.25;;;;;;;;;;5079064;28;20227;-64
2023/10/07 08:38:12;;;;;;;5.10;3.30;;;;;;;;;;5078434;28;20222;-64
2023/10/07 08:40:49;;;;;;;4.43;3.30;;;;;;;;;;5078844;28;20224;-64
2023/10/07 08:43:20;;;;;;;4.47;3.42;;;;;;;;;;5077997;28;20204;-64
2023/10/07 08:45:48;;;;;;;4.28;3.45;;;;;;;;;;5078646;28;20204;-64
2023/10/07 08:48:16;;;;;;;4.55;3.40;;;;;;;;;;5077331;28;20677;-64
2023/10/07 08:50:55;;;;;;;3.60;3.30;;;;;;;;;;5078098;28;20200;-64
2023/10/07 08:53:23;;;;;;;4.25;3.17;;;;;;;;;;5077625;28;20270;-64
2023/10/07 08:55:53;;;;;;;5.85;3.33;;;;;;;;;;5077554;28;20497;-64
2023/10/07 08:58:21;;;;;;;4.35;3.17;;;;;;;;;;5078395;28;20281;-64
2023/10/07 09:00:50;;;;;;;4.53;3.20;;;;;;;;;;5077018;28;20220;-64
2023/10/07 09:03:19;;;;;;;4.68;3.58;;;;;;;;;;5078127;28;20250;-64
2023/10/07 09:05:48;;;;;;;4.57;3.30;;;;;;;;;;5077856;28;20223;-64
2023/10/07 09:08:15;;;;;;;3.28;2.97;;;;;;;;;;5077181;28;20231;-64
2023/10/07 09:10:45;;;;;;;4.35;3.35;;;;;;;;;;5077936;28;20204;-64
2023/10/07 09:13:26;;;;;;;4.80;3.17;;;;;;;;;;5076976;28;20204;-64
2023/10/07 09:15:55;;;;;;;3.67;2.83;;;;;;;;;;5077786;28;20299;-64
2023/10/07 09:18:28;;;;;;;3.78;2.97;;;;;;;;;;5076968;28;20285;-64
2023/10/07 09:21:06;;;;;;;3.67;3.10;;;;;;;;;;5076482;28;20216;-64
2023/10/07 09:23:43;;;;;;;4.70;3.40;;;;;;;;;;5076704;28;20218;-64
2023/10/07 09:26:21;;;;;;;4.25;3.65;;;;;;;;;;5078020;28;20199;-64
2023/10/07 09:29:00;;;;;;;4.80;3.42;;;;;;;;;;5077486;28;20561;-66
2023/10/07 09:31:30;;;;;;;5.22;3.30;;;;;;;;;;5076817;28;20200;-66
2023/10/07 09:34:09;;;;;;;4.25;3.17;;;;;;;;;;5075425;28;20204;-66
2023/10/07 09:36:41;;;;;;;4.30;3.40;;;;;;;;;;5076315;28;20250;-65
2023/10/07 09:42:03;;;;;;;4.25;3.08;;;;;;;;;;5075351;28;20224;-66
2023/10/07 09:44:30;;;;;;;3.72;3.30;;;;;;;;;;5077070;28;20233;-66
2023/10/07 09:47:03;;;;;;;3.90;2.80;;;;;;;;;;5076861;28;20223;-66
2023/10/07 09:49:32;;;;;;;4.43;3.03;;;;;;;;;;5076921;28;20215;-66
2023/10/07 09:52:15;;;;;;;3.55;3.05;;;;;;;;;;5076463;28;20200;-66
2023/10/07 09:54:49;;;;;;;4.90;3.55;;;;;;;;;;5077143;28;20539;-66
2023/10/07 09:57:24;;;;;;;4.53;3.40;;;;;;;;;;5076432;28;20215;-64
2023/10/07 10:00:37;;;;;;;3.13;2.75;;;;;;;;;;5077046;28;20204;-64
2023/10/07 10:03:04;;;;;;;4.55;2.92;;;;;;;;;;5075823;28;20263;-64
2023/10/07 10:05:40;;;;;;;4.30;3.10;;;;;;;;;;5076200;28;20290;-64
2023/10/07 10:08:20;;;;;;;4.30;3.10;;;;;;;;;;5077372;28;20203;-64
2023/10/07 10:10:49;;;;;;;4.35;3.30;;;;;;;;;;5076610;28;20253;-64
2023/10/07 10:13:51;;;;;;;3.67;3.10;;;;;;;;;;5075426;28;20209;-65
2023/10/07 10:16:19;;;;;;;4.45;3.30;;;;;;;;;;5075505;28;20553;-66
2023/10/07 10:18:51;;;;;;;4.60;3.13;;;;;;;;;;5076794;28;20205;-64
2023/10/07 10:21:23;;;;;;;5.57;3.13;;;;;;;;;;5076337;28;20316;-64
2023/10/07 10:23:52;;;;;;;5.40;3.50;;;;;;;;;;5076549;28;20200;-64
2023/10/07 10:26:22;;;;;;;5.18;3.20;;;;;;;;;;5076211;28;20215;-64
2023/10/07 10:29:03;;;;;;;5.40;3.17;;;;;;;;;;5075720;28;20204;-64
2023/10/07 10:31:33;;;;;;;7.93;3.30;;;;;;;;;;5075605;28;20200;-64
2023/10/07 10:34:04;;;;;;;5.85;3.42;;;;;;;;;;5076319;28;20204;-64
2023/10/07 10:36:35;;;;;;;3.83;3.10;;;;;;;;;;5074196;28;20235;-64
2023/10/07 10:39:06;;;;;;;5.55;3.42;;;;;;;;;;5076131;28;20204;-64
2023/10/07 10:41:33;;;;;;;3.92;3.17;;;;;;;;;;5075619;28;20223;-64
2023/10/07 10:44:10;;;;;;;5.70;3.20;;;;;;;;;;5076120;28;20204;-65
2023/10/07 10:46:46;;;;;;;3.80;2.85;;;;;;;;;;5075734;28;20274;-65
2023/10/07 10:49:15;;;;;;;6.45;3.72;;;;;;;;;;5076147;28;20212;-65
2023/10/07 10:51:45;;;;;;;4.32;3.28;;;;;;;;;;5076161;28;20232;-64
2023/10/07 10:54:18;;;;;;;4.13;3.20;;;;;;;;;;5075318;28;20205;-64
2023/10/07 10:56:49;;;;;;;3.33;2.90;;;;;;;;;;5075644;28;20269;-64
2023/10/07 10:59:18;;;;;;;3.38;3.00;;;;;;;;;;5075354;28;20205;-64
2023/10/07 11:01:49;;;;;;;4.45;3.30;;;;;;;;;;5075471;28;20227;-64
2023/10/07 11:04:19;;;;;;;4.88;3.22;;;;;;;;;;5075112;28;20208;-64
2023/10/07 11:06:50;;;;;;;4.65;2.90;;;;;;;;;;5075172;28;20204;-65
2023/10/07 11:09:25;;;;;;;4.03;3.10;;;;;;;;;;5075391;28;20218;-64
2023/10/07 11:11:57;;;;;;;3.85;3.15;;;;;;;;;;5075147;28;20207;-64
2023/10/07 11:14:26;;;;;;;4.25;3.38;;;;;;;;;;5075441;28;20584;-65
2023/10/07 11:17:00;;;;;;;4.43;2.92;;;;;;;;;;5074881;28;20655;-65
2023/10/07 11:19:28;;;;;;;4.60;3.53;;;;;;;;;;5075439;28;20211;-64
2023/10/07 11:21:57;;;;;;;3.47;3.00;;;;;;;;;;5074913;28;20237;-64
2023/10/07 11:24:26;;;;;;;4.20;3.53;;;;;;;;;;5080121;28;20239;-64
2023/10/07 11:26:56;;;;;;;4.88;3.42;;;;;;;;;;5081982;28;20200;-64
2023/10/07 11:29:29;;;;;;;4.00;3.30;;;;;;;;;;5081543;28;20307;-64
2023/10/07 11:32:00;;;;;;;5.38;3.15;;;;;;;;;;5081827;28;20365;-64
2023/10/07 11:34:36;;;;;;;4.13;3.15;;;;;;;;;;5081883;28;20204;-64
2023/10/07 11:37:10;;;;;;;5.38;3.58;;;;;;;;;;5080341;28;20196;-64
2023/10/07 11:39:44;;;;;;;4.57;3.28;;;;;;;;;;5080649;28;20219;-64
2023/10/07 11:42:16;;;;;;;5.03;3.47;;;;;;;;;;5081661;28;20807;-64
2023/10/07 11:44:46;;;;;;;3.58;3.08;;;;;;;;;;5081213;28;20572;-65
2023/10/07 11:47:15;;;;;;;4.20;3.38;;;;;;;;;;5081017;28;20200;-65
2023/10/07 11:49:42;;;;;;;3.28;2.97;;;;;;;;;;5080814;28;20289;-65
2023/10/07 11:52:10;;;;;;;5.25;3.50;;;;;;;;;;5081394;28;20207;-64
2023/10/07 11:54:39;;;;;;;4.43;3.25;;;;;;;;;;5081171;28;20208;-64
2023/10/07 11:57:09;;;;;;;4.10;3.13;;;;;;;;;;5080797;28;20290;-65
2023/10/07 11:59:41;;;;;;;5.47;3.65;;;;;;;;;;5081695;28;20286;-66
2023/10/07 12:02:10;;;;;;;4.75;3.63;;;;;;;;;;5081532;28;20232;-65
2023/10/07 12:04:41;;;;;;;4.65;3.20;;;;;;;;;;5081577;28;20634;-65
2023/10/07 12:07:13;;;;;;;4.20;3.55;;;;;;;;;;5080840;28;20222;-65
2023/10/07 12:09:40;;;;;;;4.95;3.42;;;;;;;;;;5081448;28;20204;-65
2023/10/07 12:12:11;;;;;;;4.03;3.40;;;;;;;;;;5080956;28;20192;-65
2023/10/07 12:14:39;;;;;;;4.20;3.42;;;;;;;;;;5080918;28;20196;-65
2023/10/07 12:17:07;;;;;;;4.72;3.60;;;;;;;;;;5081603;28;20208;-65
2023/10/07 12:19:36;;;;;;;4.35;3.63;;;;;;;;;;5081069;28;20208;-66
2023/10/07 12:22:05;;;;;;;4.10;3.53;;;;;;;;;;5080819;28;20269;-66
2023/10/07 12:24:33;;;;;;;4.82;3.65;;;;;;;;;;5079941;28;20208;-66
2023/10/07 12:27:00;;;;;;;4.63;3.40;;;;;;;;;;5081511;28;20204;-66
2023/10/07 12:29:29;;;;;;;4.60;3.53;;;;;;;;;;5081287;28;20204;-66
2023/10/07 12:31:58;;;;;;;4.15;3.55;;;;;;;;;;5080779;28;20328;-66
2023/10/07 12:34:26;;;;;;;4.43;3.22;;;;;;;;;;5079861;28;20306;-66
2023/10/07 12:36:53;;;;;;;5.43;4.00;;;;;;;;;;5078086;28;20215;-66
2023/10/07 12:39:22;;;;;;;4.13;3.30;;;;;;;;;;5077693;28;20204;-66
2023/10/07 12:41:49;;;;;;;5.00;3.58;;;;;;;;;;5077743;28;20319;-66
2023/10/07 12:44:17;;;;;;;3.75;3.33;;;;;;;;;;5077141;28;20215;-66
2023/10/07 12:46:46;;;;;;;4.78;3.63;;;;;;;;;;5077874;28;20208;-66
2023/10/07 12:49:15;;;;;;;4.28;3.38;;;;;;;;;;5076703;28;20692;-66
2023/10/07 12:51:43;;;;;;;4.18;3.30;;;;;;;;;;5077521;28;20204;-66
2023/10/07 12:54:11;;;;;;;3.90;3.50;;;;;;;;;;5077101;28;20227;-66
2023/10/07 12:56:39;;;;;;;4.88;3.83;;;;;;;;;;5077097;28;20724;-66
2023/10/07 12:59:21;;;;;;;3.78;3.42;;;;;;;;;;5076781;28;20208;-66
2023/10/07 13:01:51;;;;;;;3.85;3.47;;;;;;;;;;5076500;28;20592;-66
2023/10/07 13:04:21;;;;;;;4.43;3.53;;;;;;;;;;5076295;28;20564;-66
2023/10/07 13:07:00;;;;;;;3.85;3.42;;;;;;;;;;5076117;28;20265;-66
2023/10/07 13:09:30;;;;;;;4.18;3.47;;;;;;;;;;5076305;28;20196;-66
2023/10/07 13:11:58;;;;;;;3.38;2.90;;;;;;;;;;5076656;28;20658;-66
2023/10/07 13:14:26;;;;;;;4.45;3.30;;;;;;;;;;5077515;28;20254;-66
2023/10/07 13:16:57;;;;;;;4.18;3.13;;;;;;;;;;5076522;28;20308;-66
2023/10/07 13:19:26;;;;;;;4.05;3.28;;;;;;;;;;5076568;28;20212;-66
2023/10/07 13:21:55;;;;;;;4.15;3.72;;;;;;;;;;5076642;28;20204;-66
2023/10/07 13:24:22;;;;;;;3.30;2.83;;;;;;;;;;5076294;28;20205;-66
2023/10/07 13:26:50;;;;;;;3.85;2.80;;;;;;;;;;5077228;28;20204;-66
2023/10/07 13:29:18;;;;;;;3.83;3.03;;;;;;;;;;5076251;28;20204;-66
2023/10/07 13:31:46;;;;;;;4.45;3.10;;;;;;;;;;5075685;28;20228;-66
2023/10/07 13:34:17;;;;;;;3.53;3.13;;;;;;;;;;5076741;28;20291;-66
2023/10/07 13:36:44;;;;;;;3.53;3.17;;;;;;;;;;5076175;28;20200;-66
2023/10/07 13:39:16;;;;;;;2.97;2.70;;;;;;;;;;5076557;28;20208;-66
2023/10/07 13:41:45;;;;;;;3.30;2.90;;;;;;;;;;5076038;28;20204;-66
2023/10/07 13:44:13;;;;;;;3.47;3.17;;;;;;;;;;5076739;28;20220;-66
2023/10/07 13:46:40;;;;;;;3.97;3.22;;;;;;;;;;5074850;28;20219;-66
2023/10/07 13:49:10;;;;;;;4.20;3.30;;;;;;;;;;5076469;28;20196;-66
2023/10/07 13:51:41;;;;;;;3.63;3.03;;;;;;;;;;5075996;28;20615;-66
2023/10/07 13:54:38;;;;;;;3.63;3.08;;;;;;;;;;5076260;28;20211;-66
2023/10/07 13:57:09;;;;;;;4.32;3.08;;;;;;;;;;5076164;28;20208;-66
2023/10/07 13:59:40;;;;;;;4.32;3.10;;;;;;;;;;5075360;28;20216;-66
2023/10/07 14:02:13;;;;;;;4.45;3.05;;;;;;;;;;5075095;28;20573;-66
2023/10/07 14:04:40;;;;;;;3.83;2.97;;;;;;;;;;5076192;28;20319;-66
2023/10/07 14:07:09;;;;;;;3.22;2.92;;;;;;;;;;5075019;28;20237;-66
2023/10/07 14:09:38;;;;;;;3.13;2.83;;;;;;;;;;5075530;28;20200;-66
2023/10/07 14:12:06;;;;;;;4.63;3.10;;;;;;;;;;5075454;28;20453;-66
2023/10/07 14:14:33;;;;;;;3.80;3.00;;;;;;;;;;5074956;28;20235;-66
2023/10/07 14:17:03;;;;;;;3.47;2.83;;;;;;;;;;5076083;28;20282;-66
2023/10/07 14:19:31;;;;;;;3.95;3.20;;;;;;;;;;5075178;28;20605;-66
2023/10/07 14:21:58;;;;;;;3.30;3.00;;;;;;;;;;5075894;28;20653;-66
2023/10/07 14:24:29;;;;;;;3.97;2.97;;;;;;;;;;5076131;28;20204;-66
2023/10/07 14:26:57;;;;;;;3.03;2.72;;;;;;;;;;5075987;28;20204;-66
2023/10/07 14:29:25;;;;;;;3.08;2.78;;;;;;;;;;5075991;28;20211;-66
2023/10/07 14:31:53;;;;;;;3.70;2.90;;;;;;;;;;5075046;28;20229;-66
2023/10/07 14:34:20;;;;;;;3.10;2.80;;;;;;;;;;5074827;28;20458;-66
2023/10/07 14:36:48;;;;;;;2.80;2.50;;;;;;;;;;5075826;28;20205;-66
2023/10/07 14:39:15;;;;;;;3.53;2.88;;;;;;;;;;5074565;28;20204;-66
2023/10/07 14:41:44;;;;;;;3.20;2.83;;;;;;;;;;5074776;28;20231;-66
2023/10/07 14:44:11;;;;;;;2.92;2.55;;;;;;;;;;5075461;28;20227;-66
2023/10/07 14:46:42;;;;;;;2.90;2.60;;;;;;;;;;5074958;28;20491;-66
2023/10/07 14:49:10;;;;;;;3.50;2.95;;;;;;;;;;5074842;28;20215;-66
2023/10/07 14:51:38;;;;;;;4.70;3.75;;;;;;;;;;5074825;28;20215;-66
2023/10/07 14:54:05;;;;;;;5.30;4.22;;;;;;;;;;5075477;28;20200;-66
2023/10/07 14:56:32;;;;;;;5.35;4.15;;;;;;;;;;5074559;28;20600;-66
2023/10/07 14:59:01;;;;;;;4.32;3.83;;;;;;;;;;5074382;28;20204;-66
2023/10/07 15:01:31;;;;;;;4.95;3.70;;;;;;;;;;5074990;28;20204;-66
2023/10/07 15:03:59;;;;;;;4.70;3.85;;;;;;;;;;5074454;28;20224;-66
2023/10/07 15:06:27;;;;;;;5.50;3.67;;;;;;;;;;5075122;28;20892;-66
2023/10/07 15:08:54;;;;;;;4.97;3.70;;;;;;;;;;5074098;28;20231;-66
2023/10/07 15:11:22;;;;;;;4.35;3.90;;;;;;;;;;5074694;28;20295;-66
2023/10/07 15:13:51;;;;;;;5.18;3.90;;;;;;;;;;5074523;28;20224;-66
2023/10/07 15:16:20;;;;;;;4.38;3.42;;;;;;;;;;5073810;28;20486;-66
2023/10/07 15:18:50;;;;;;;4.90;4.07;;;;;;;;;;5074405;28;20235;-66